White Mountain Summit Weather observations

Data are for 10 minute period ending at time listed.
 Day   Time   Solar   Ave.   Ave.  Ave.  Vector    Max.    Baro.  
  of    of     Rad.   Air    Rel.  Wind   Wind     Wind   Press.  
Year   Day            Temp.  Hum.  Speed  Dir.     Gust           
2015   (PST)   W/m2    F      %     mph   deg.      mph     mb.   
-------------------------------------------------------------------
  87   18:10    0.0    33   34.6     4     78.4     7.1   999.0 
  87   18:20    0.0    32   36.5     5    110.9     9.4   999.0 
  87   18:30    0.0    31   37.3     7    128.0    11.8   999.0 
  87   18:40    0.0    30   40.0    11    127.4    14.1   999.0 
  87   18:50    0.0    29   41.2    12    135.0    16.5   999.0 
  87   19:00    0.0    28   41.8    11    151.8    16.5   999.0 
  87   19:10    0.0    29   40.5    11    218.0    14.1   999.0 
  87   19:20    0.0    28   42.5    14    238.7    21.2   999.0 
  87   19:30    0.0    28   44.0    12    234.5    18.8   999.0 
  87   19:40    0.0    28   45.2    13    230.0    16.5   999.0 
  87   19:50    0.0    28   46.0    13    232.8    18.8   999.0 
  87   20:00    0.0    28   46.4    13    240.1    18.8   999.0 
  87   20:10    0.0    27   47.5    15    236.2    18.8   999.0 
  87   20:20    0.0    27   48.5    14    231.8    18.8   999.0 
  87   20:30    0.0    27   48.8    13    234.8    18.8   999.0 
  87   20:40    0.0    27   49.2    13    236.0    16.5   999.0 
  87   20:50    0.0    27   49.4    12    234.4    16.5   999.0 
  87   21:00    0.0    26   49.3    10    238.0    14.1   999.0 
  87   21:10    0.0    26   49.3    12    238.7    16.5   999.0 
  87   21:20    0.0    26   50.5    13    233.6    18.8   999.0 
  87   21:30    0.0    26   51.0    13    229.8    18.8   999.0 
  87   21:40    0.0    26   51.8    12    230.4    18.8   999.0 
  87   21:50    0.0    26   52.0    11    224.4    16.5   999.0 
  87   22:00    0.0    25   52.2    12    216.1    14.1   999.0 
  87   22:10    0.0    25   51.8    15    194.7    18.8   999.0 
  87   22:20    0.0    25   51.6    17    169.7    23.5   999.0 
  87   22:30    0.0    25   51.3    16    168.5    21.2   999.0 
  87   22:40    0.0    25   51.2    20    163.4    23.5   999.0 
  87   22:50    0.0    25   51.2    21    164.3    25.9   999.0 
  87   23:00    0.0    25   51.2    20    162.5    25.9   999.0 
  87   23:10    0.0    25   51.1    20    165.5    25.9   999.0 
  87   23:20    0.0    25   51.6    14    176.7    18.8   999.0 
  87   23:30    0.0    25   51.1    16    183.3    23.5   999.0 
  87   23:40    0.0    25   52.7    18    186.4    23.5   999.0 
  87   23:50    0.0    25   53.8    19    197.2    23.5   999.0 
  88    0:00    0.0    25   53.7    17    202.3    23.5   999.0 
  88    0:10    0.0    25   53.6    16    216.7    18.8   999.0 
  88    0:20    0.0    24   53.8    18    224.0    23.5   999.0 
  88    0:30    0.0    25   53.0    18    221.5    25.9   999.0 
  88    0:40    0.0    25   52.2    19    218.6    28.2   999.0 
  88    0:50    0.0    25   52.1    20    209.8    30.6   999.0 
  88    1:00    0.0    25   51.8    18    208.5    28.2   999.0 
  88    1:10    0.0    25   51.1    19    207.7    28.2   999.0 
  88    1:20    0.0    25   51.6    19    213.4    25.9   999.0 
  88    1:30    0.0    25   50.9    18    216.6    25.9   999.0 
  88    1:40    0.0    25   51.5    17    228.1    21.2   999.0 
  88    1:50    0.0    25   50.6    18    219.2    23.5   999.0 
  88    2:00    0.0    25   50.6    20    213.9    28.2   999.0 
  88    2:10    0.0    25   50.7    20    212.7    28.2   999.0 
  88    2:20    0.0    25   51.2    19    216.1    28.2   999.0 
  88    2:30    0.0    25   51.4    18    211.1    28.2   999.0 
  88    2:40    0.0    25   50.9    20    201.3    28.2   999.0 
  88    2:50    0.0    25   51.4    17    203.4    23.5   999.0 
  88    3:00    0.0    24   51.0    19    199.0    23.5   999.0 
  88    3:10    0.0    24   51.9    19    209.3    25.9   999.0 
  88    3:20    0.0    24   51.6    20    222.1    28.2   999.0 
  88    3:30    0.0    24   50.1    19    233.4    25.9   999.0 
  88    3:40    0.0    24   50.5    22    227.7    28.2   999.0 
  88    3:50    0.0    24   50.7    23    221.3    30.6   999.0 
  88    4:00    0.0    24   51.1    24    217.5    33.0   999.0 
  88    4:10    0.0    24   50.5    22    212.8    30.6   999.0 
  88    4:20    0.0    24   50.5    21    212.6    33.0   999.0 
  88    4:30    0.0    24   49.7    22    215.7    30.6   999.0 
  88    4:40    0.0    24   49.8    21    219.7    28.2   999.0 
  88    4:50    0.0    24   50.3    22    224.5    28.2   999.0 
  88    5:00    0.0    24   49.5    21    225.7    28.2   999.0 
  88    5:10    0.0    24   48.9    22    216.3    28.2   999.0 
  88    5:20    0.0    24   48.2    19    217.4    28.2   999.0 
  88    5:30    0.0    24   47.6    19    225.5    23.5   999.0 
  88    5:40    0.0    24   47.4    20    223.0    25.9   999.0 
  88    5:50    0.0    24   46.9    20    214.5    28.2   999.0 
  88    6:00    0.0    24   47.8    21    210.5    28.2   999.0 
  88    6:10    0.0    24   50.2    20    212.5    28.2   999.0 
  88    6:20    0.0    24   48.1    20    215.3    30.6   999.0 
  88    6:30    0.0    24   47.0    20    217.5    28.2   999.0 
  88    6:40    0.0    24   51.3    17    224.0    25.9   999.0 
  88    6:50    0.0    24   50.7    17    221.1    21.2   999.0 
  88    7:00    0.0    24   47.7    18    219.8    25.9   999.0 
  88    7:10    0.0    24   48.0    17    209.0    21.2   999.0 
  88    7:20    0.0    24   48.2    17    208.5    21.2   999.0 
  88    7:30    0.0    24   47.0    16    208.0    21.2   999.0 
  88    7:40    0.0    24   45.3    15    208.5    21.2   999.0 
  88    7:50    0.0    24   48.5    17    212.5    21.2   999.0 
  88    8:00    0.0    24   42.4    19    212.6    23.5   999.0 
  88    8:10    0.0    24   44.5    20    210.4    28.2   999.0 
  88    8:20    0.0    25   44.1    20    208.4    23.5   999.0 
  88    8:30    0.0    25   38.1    20    206.7    25.9   999.0 
  88    8:40    0.0    25   36.6    16    219.2    21.2   999.0 
  88    8:50    0.0    25   36.7    15    206.2    21.2   999.0 
  88    9:00    0.0    26   37.4    16    211.7    23.5   999.0 
  88    9:10    0.0    26   38.2    14    187.3    18.8   999.0 
  88    9:20    0.0    26   33.2    15    213.9    18.8   999.0 
  88    9:30    0.0    27   33.4    13    213.5    18.8   999.0 
  88    9:40    0.0    28   33.3    14    203.3    18.8   999.0 
  88    9:50    0.0    29   35.6    11    188.3    16.5   999.0 
  88   10:00    0.0    29   39.1    10    212.5    14.1   999.0 
  88   10:10    0.0    30   39.1     9    215.6    11.8   999.0 
  88   10:20    0.0    30   39.2    10    227.3    16.5   999.0 
  88   10:30    0.0    30   39.3    11    224.0    16.5   999.0 
  88   10:40    0.0    31   37.1    10    228.8    16.5   999.0 
  88   10:50    0.0    31   36.8    11    223.7    16.5   999.0 
  88   11:00    0.0    31   35.3    11    227.0    14.1   999.0 
  88   11:10    0.0    32   32.2    13    233.2    16.5   999.0 
  88   11:20    0.0    32   31.4    13    231.1    18.8   999.0 
  88   11:30    0.0    32   31.7    12    231.2    16.5   999.0 
  88   11:40    0.0    32   29.6    12    241.7    18.8   999.0 
  88   11:50    0.0    34   28.9    12    248.3    21.2   999.0 
  88   12:00    0.0    35   27.1    12    240.8    16.5   999.0 
  88   12:10    0.0    34   27.5    11    231.7    14.1   999.0 
  88   12:20    0.0    34   25.3    12    244.0    18.8   999.0 
  88   12:30    0.0    34   27.0    12    243.8    16.5   999.0 
  88   12:40    0.0    35   25.0    12    248.7    16.5   999.0 
  88   12:50    0.0    37   22.3    13    253.0    18.8   999.0 
  88   13:00    0.0    37   23.2    16    256.3    23.5   999.0 
  88   13:10    0.0    38   23.7    15    257.4    21.2   999.0 
  88   13:20    0.0    39   22.1    15    256.5    23.5   999.0 
  88   13:30    0.0    38   24.3    15    259.0    21.2   999.0 
  88   13:40    0.0    38   22.9    15    260.2    21.2   999.0 
  88   13:50    0.0    38   22.0    15    251.9    21.2   999.0 
  88   14:00    0.0    39   22.3    17    261.2    23.5   999.0 
  88   14:10    0.0    41   21.3    17    265.9    25.9   999.0 
  88   14:20    0.0    40   20.7    14    259.3    21.2   999.0 
  88   14:30    0.0    39   21.7    14    255.1    18.8   999.0 
  88   14:40    0.0    39   21.8    16    259.4    23.5   999.0 
  88   14:50    0.0    40   23.2    16    266.1    21.2   999.0 
  88   15:00    0.0    40   24.4    18    264.1    25.9   999.0 
  88   15:10    0.0    40   26.4    17    265.9    23.5   999.0 
  88   15:20    0.0    41   26.1    21    265.7    28.2   999.0 
  88   15:30    0.0    40   28.0    26    268.1    37.7   999.0 
  88   15:40    0.0    40   28.6    22    269.1    40.0   999.0 
  88   15:50    0.0    39   29.4    18    265.6    28.2   999.0 
  88   16:00    0.0    39   29.2    19    268.5    30.6   999.0 
  88   16:10    0.0    39   29.2    16    263.7    25.9   999.0 
  88   16:20    0.0    38   29.5    15    262.7    21.2   999.0 
  88   16:30    0.0    38   29.6    20    266.8    28.2   999.0 
  88   16:40    0.0    36   30.6    20    266.1    28.2   999.0 
  88   16:50    0.0    36   31.8    19    267.2    30.6   999.0 
  88   17:00    0.0    35   32.5    20    268.4    30.6   999.0 
  88   17:10    0.0    34   38.1    15    236.9    21.2   999.0 
  88   17:20    0.0    30   42.2    13    100.2    21.2   999.0 
  88   17:30    0.0    29   36.0    13    160.1    21.2   999.0 
  88   17:40    0.0    31   34.1     8    260.2    11.8   999.0 
  88   17:50    0.0    32   33.5     6    285.5     9.4   999.0 
  88   18:00    0.0    32   33.6    10    265.3    16.5   999.0 

Return to White Mountain graphs page.


Western Regional Climate Center,wrcc@dri.edu